createdAt,value
2019-01-29T00:01:37.990Z,98992.70
2019-01-29T00:04:09.566Z,98988.14
2019-01-29T00:06:41.196Z,98990.88
2019-01-29T00:09:12.778Z,98986.48
2019-01-29T00:11:44.351Z,98987.45
2019-01-29T00:14:15.923Z,98990.88
2019-01-29T00:16:47.502Z,98999.14
2019-01-29T00:19:19.074Z,98996.19
2019-01-29T00:21:50.627Z,98995.34
2019-01-29T00:24:22.209Z,99002.48
2019-01-29T00:26:53.848Z,99003.01
2019-01-29T00:29:25.492Z,99003.53
2019-01-29T00:31:57.130Z,99005.06
2019-01-29T00:34:28.750Z,99007.56
2019-01-29T00:37:00.318Z,99005.55
2019-01-29T00:39:31.994Z,99004.78
2019-01-29T00:42:03.597Z,99002.84
2019-01-29T00:44:35.242Z,99004.14
2019-01-29T00:47:06.882Z,99005.02
2019-01-29T00:49:38.570Z,99008.88
2019-01-29T00:52:10.149Z,99007.80
2019-01-29T00:54:41.703Z,99004.98
2019-01-29T00:57:13.364Z,99015.74
2019-01-29T01:00:01.060Z,99015.50
2019-01-29T01:02:32.670Z,99011.83
2019-01-29T01:05:05.546Z,99018.36
2019-01-29T01:07:37.589Z,99025.37
2019-01-29T01:10:13.188Z,99017.91
2019-01-29T01:12:44.774Z,99021.42
2019-01-29T01:15:16.530Z,99018.76
2019-01-29T01:17:48.082Z,99023.64
2019-01-29T01:20:19.930Z,99021.98
2019-01-29T01:22:51.604Z,99017.36
2019-01-29T01:25:23.227Z,99015.98
2019-01-29T01:27:54.802Z,99018.88
2019-01-29T01:30:26.436Z,99020.54
2019-01-29T01:32:58.108Z,99024.61
2019-01-29T01:35:29.688Z,99022.95
2019-01-29T01:38:01.368Z,99020.16
2019-01-29T01:40:33.004Z,99022.66
2019-01-29T01:43:04.638Z,99024.68
2019-01-29T01:45:36.512Z,99020.09
2019-01-29T01:48:08.158Z,99022.52
2019-01-29T01:50:39.889Z,99024.41
2019-01-29T01:53:11.469Z,99027.19
2019-01-29T01:55:43.136Z,99028.52
2019-01-29T01:58:14.785Z,99025.45
2019-01-29T02:00:46.371Z,99032.87
2019-01-29T02:03:18.298Z,99028.40
2019-01-29T02:05:49.996Z,99030.25
2019-01-29T02:08:21.612Z,99033.08
2019-01-29T02:10:53.219Z,99033.67
2019-01-29T02:13:24.773Z,99032.51
2019-01-29T02:15:56.324Z,99029.20
2019-01-29T02:18:27.876Z,99031.25
2019-01-29T02:20:59.435Z,99035.41
2019-01-29T02:23:31.015Z,99035.38
2019-01-29T02:26:02.621Z,99036.94
2019-01-29T02:28:34.198Z,99037.66
2019-01-29T02:31:05.853Z,99041.97
2019-01-29T02:33:42.537Z,99041.90
2019-01-29T02:36:14.101Z,99046.53
2019-01-29T02:38:46.747Z,99039.03
2019-01-29T02:41:18.301Z,99048.27
2019-01-29T02:43:49.849Z,99044.56
2019-01-29T02:46:21.463Z,99045.81
2019-01-29T02:48:53.028Z,99049.64
2019-01-29T02:51:24.669Z,99045.52
2019-01-29T02:53:56.255Z,99051.13
2019-01-29T02:56:27.847Z,99055.25
2019-01-29T02:58:59.427Z,99046.94
2019-01-29T03:01:31.009Z,99053.50
2019-01-29T03:04:02.559Z,99055.72
2019-01-29T03:06:34.314Z,99063.96
2019-01-29T03:09:08.365Z,99062.48
2019-01-29T03:11:39.977Z,99061.80
2019-01-29T03:14:11.539Z,99064.94
2019-01-29T03:16:43.145Z,99069.57
2019-01-29T03:19:14.693Z,99070.78
2019-01-29T03:21:46.302Z,99071.60
2019-01-29T03:24:17.856Z,99066.00
2019-01-29T03:26:49.429Z,99071.80
2019-01-29T03:29:21.093Z,99066.80
2019-01-29T03:31:52.698Z,99067.81
2019-01-29T03:34:24.400Z,99077.35
2019-01-29T03:36:55.967Z,99078.81
2019-01-29T03:39:27.542Z,99088.28
2019-01-29T03:41:59.084Z,99085.02
2019-01-29T03:44:30.691Z,99085.84
2019-01-29T03:47:03.313Z,99091.15
2019-01-29T03:49:34.876Z,99086.23
2019-01-29T03:52:06.438Z,99087.33
2019-01-29T03:54:37.995Z,99090.52
2019-01-29T03:57:09.609Z,99096.14
2019-01-29T03:59:41.179Z,99098.32
2019-01-29T04:02:12.723Z,99092.97
2019-01-29T04:04:44.290Z,99105.44
2019-01-29T04:07:15.874Z,99098.78
2019-01-29T04:09:47.440Z,99105.66
2019-01-29T04:12:19.052Z,99106.37
2019-01-29T04:14:50.632Z,99109.61
2019-01-29T04:17:22.177Z,99113.61
2019-01-29T04:19:53.790Z,99106.69
2019-01-29T04:22:25.494Z,99108.13
2019-01-29T04:24:57.093Z,99115.24
2019-01-29T04:27:28.674Z,99117.52
2019-01-29T04:30:00.318Z,99120.04
2019-01-29T04:32:31.895Z,99120.38
2019-01-29T04:35:03.438Z,99119.46
2019-01-29T04:37:35.076Z,99124.17
2019-01-29T04:40:13.797Z,99129.70
2019-01-29T04:42:45.351Z,99130.51
2019-01-29T04:45:18.245Z,99127.00
2019-01-29T04:47:49.826Z,99131.55
2019-01-29T04:50:22.070Z,99139.41
2019-01-29T04:52:53.899Z,99132.87
2019-01-29T04:55:25.967Z,99136.72
2019-01-29T04:57:57.514Z,99141.09
2019-01-29T05:00:29.073Z,99142.76
2019-01-29T05:03:00.809Z,99154.91
2019-01-29T05:05:32.372Z,99155.03
2019-01-29T05:08:04.008Z,99150.56
2019-01-29T05:10:35.626Z,99148.20
2019-01-29T05:13:07.271Z,99156.88
2019-01-29T05:15:38.876Z,99157.71
2019-01-29T05:18:10.500Z,99164.02
2019-01-29T05:20:42.119Z,99168.92
2019-01-29T05:23:13.692Z,99176.90
2019-01-29T05:25:45.244Z,99178.69
2019-01-29T05:28:16.848Z,99177.97
2019-01-29T05:30:48.493Z,99181.95
2019-01-29T05:33:20.059Z,99187.09
2019-01-29T05:35:51.622Z,99194.92
2019-01-29T05:38:23.186Z,99201.60
2019-01-29T05:40:54.751Z,99203.83
2019-01-29T05:43:26.312Z,99215.92
2019-01-29T05:45:57.906Z,99219.91
2019-01-29T05:48:29.459Z,99219.36
2019-01-29T05:51:01.063Z,99222.02
2019-01-29T05:53:32.633Z,99227.69
2019-01-29T05:56:04.327Z,99225.36
2019-01-29T05:58:35.966Z,99229.91
2019-01-29T06:01:07.711Z,99237.62
2019-01-29T06:03:39.269Z,99238.80
2019-01-29T06:06:10.837Z,99233.41
2019-01-29T06:08:42.383Z,99240.30
2019-01-29T06:11:13.948Z,99240.34
2019-01-29T06:13:45.581Z,99239.31
2019-01-29T06:16:17.167Z,99244.02
2019-01-29T06:18:48.728Z,99249.02
2019-01-29T06:21:20.412Z,99256.25
2019-01-29T06:23:51.943Z,99261.71
2019-01-29T06:26:23.503Z,99267.52
2019-01-29T06:28:55.045Z,99270.45
2019-01-29T06:31:26.612Z,99271.09
2019-01-29T06:33:58.173Z,99274.72
2019-01-29T06:36:29.703Z,99284.44
2019-01-29T06:39:01.299Z,99287.91
2019-01-29T06:41:33.126Z,99295.14
2019-01-29T06:44:04.688Z,99294.39
2019-01-29T06:46:36.267Z,99297.05
2019-01-29T06:49:07.862Z,99303.80
2019-01-29T06:51:39.465Z,99304.36
2019-01-29T06:54:11.199Z,99314.38
2019-01-29T06:56:42.760Z,99312.47
2019-01-29T06:59:14.367Z,99323.00
2019-01-29T07:01:45.929Z,99330.69
2019-01-29T07:04:17.547Z,99333.31
2019-01-29T07:06:49.115Z,99336.70
2019-01-29T07:09:20.666Z,99342.80
2019-01-29T07:11:59.338Z,99348.39
2019-01-29T07:14:30.929Z,99354.80
2019-01-29T07:17:06.860Z,99356.88
2019-01-29T07:19:38.498Z,99356.88
2019-01-29T07:22:10.050Z,99368.37
2019-01-29T07:24:42.847Z,99372.14
2019-01-29T07:27:14.771Z,99373.83
2019-01-29T07:29:46.353Z,99375.13
2019-01-29T07:32:17.975Z,99373.48
2019-01-29T07:34:49.587Z,99387.70
2019-01-29T07:37:22.164Z,99390.64
2019-01-29T07:39:54.032Z,99391.09
2019-01-29T07:42:25.602Z,99392.59
2019-01-29T07:44:57.157Z,99403.54
2019-01-29T07:47:28.792Z,99402.01
2019-01-29T07:50:00.353Z,99405.99
2019-01-29T07:52:31.939Z,99410.87
2019-01-29T07:55:04.108Z,99409.72
2019-01-29T07:57:35.669Z,99412.61
2019-01-29T08:00:16.301Z,99418.58
2019-01-29T08:02:47.860Z,99421.63
2019-01-29T08:05:20.779Z,99431.09
2019-01-29T08:07:52.440Z,99437.14
2019-01-29T08:10:24.763Z,99437.93
2019-01-29T08:12:56.741Z,99448.30
2019-01-29T08:15:28.379Z,99458.93
2019-01-29T08:17:59.930Z,99457.45
2019-01-29T08:20:31.484Z,99466.72
2019-01-29T08:23:03.042Z,99479.59
2019-01-29T08:25:34.621Z,99479.38
2019-01-29T08:28:06.211Z,99479.29
2019-01-29T08:30:38.829Z,99482.13
2019-01-29T08:33:10.399Z,99495.59
2019-01-29T08:35:41.960Z,99494.30
2019-01-29T08:38:13.573Z,99505.05
2019-01-29T08:40:45.127Z,99501.05
2019-01-29T08:43:16.692Z,99508.30
2019-01-29T08:45:48.247Z,99506.95
2019-01-29T08:48:19.802Z,99511.09
2019-01-29T08:50:52.994Z,99515.38
2019-01-29T08:53:24.600Z,99526.42
2019-01-29T08:55:56.166Z,99532.12
2019-01-29T08:58:27.705Z,99542.58
2019-01-29T09:00:59.259Z,99538.78
2019-01-29T09:03:30.798Z,99550.69
2019-01-29T09:06:02.351Z,99561.47
2019-01-29T09:08:33.901Z,99554.52
2019-01-29T09:11:05.467Z,99560.64
2019-01-29T09:13:40.525Z,99567.27
2019-01-29T09:16:12.035Z,99572.78
2019-01-29T09:18:43.582Z,99579.84
2019-01-29T09:21:15.122Z,99583.63
2019-01-29T09:23:50.119Z,99583.45
2019-01-29T09:26:20.576Z,99584.34
2019-01-29T09:28:52.231Z,99587.83
2019-01-29T09:31:24.749Z,99591.23
2019-01-29T09:33:57.979Z,99595.30
2019-01-29T09:36:31.172Z,99598.23
2019-01-29T09:39:04.832Z,99593.24
2019-01-29T09:41:38.607Z,99591.25
2019-01-29T09:44:11.057Z,99609.70
2019-01-29T09:46:42.798Z,99605.80
2019-01-29T09:49:14.485Z,99614.34
2019-01-29T09:51:49.585Z,99613.92
2019-01-29T09:54:21.241Z,99622.64
2019-01-29T09:56:52.947Z,99627.41
2019-01-29T09:59:26.535Z,99628.77
2019-01-29T10:02:00.018Z,99635.06
2019-01-29T10:04:31.657Z,99637.20
2019-01-29T10:07:03.466Z,99644.83
2019-01-29T10:09:35.104Z,99642.36
2019-01-29T10:12:06.904Z,99644.08
2019-01-29T10:14:38.805Z,99648.22
2019-01-29T10:17:11.591Z,99652.82
2019-01-29T10:19:43.154Z,99650.37
2019-01-29T10:22:14.710Z,99653.36
2019-01-29T10:24:48.052Z,99659.72
2019-01-29T10:27:21.690Z,99658.21
2019-01-29T10:29:53.342Z,99661.69
2019-01-29T10:32:25.008Z,99656.28
2019-01-29T10:34:56.722Z,99657.36
2019-01-29T10:37:28.578Z,99659.58
2019-01-29T10:40:04.045Z,99657.41
2019-01-29T10:42:37.073Z,99665.48
2019-01-29T10:45:15.524Z,99656.34
2019-01-29T10:47:47.811Z,99669.75
2019-01-29T10:50:26.129Z,99674.27
2019-01-29T10:52:57.670Z,99676.03
2019-01-29T10:55:29.274Z,99670.60
2019-01-29T10:58:01.431Z,99669.51
2019-01-29T11:00:41.482Z,99678.49
2019-01-29T11:03:13.045Z,99678.32
2019-01-29T11:05:44.866Z,99676.62
2019-01-29T11:08:16.524Z,99683.67
2019-01-29T11:10:48.064Z,99685.84
2019-01-29T11:13:19.642Z,99685.95
2019-01-29T11:15:51.191Z,99694.86
2019-01-29T11:18:22.765Z,99698.94
2019-01-29T11:20:54.449Z,99697.26
2019-01-29T11:23:26.060Z,99704.48
2019-01-29T11:25:57.630Z,99695.87
2019-01-29T11:28:29.783Z,99692.30
2019-01-29T11:31:01.345Z,99702.69
2019-01-29T11:33:32.900Z,99702.27
2019-01-29T11:36:04.452Z,99712.23
2019-01-29T11:38:36.050Z,99714.57
2019-01-29T11:41:07.593Z,99717.73
2019-01-29T11:43:39.212Z,99723.36
2019-01-29T11:46:10.845Z,99731.52
2019-01-29T11:48:42.408Z,99722.27
2019-01-29T11:51:14.037Z,99728.28
2019-01-29T11:53:45.684Z,99733.87
2019-01-29T11:56:17.242Z,99731.57
2019-01-29T11:58:48.838Z,99728.63
2019-01-29T12:01:20.429Z,99740.98
2019-01-29T12:03:51.958Z,99742.50
2019-01-29T12:06:23.501Z,99746.19
2019-01-29T12:08:55.046Z,99750.35
2019-01-29T12:11:26.615Z,99750.05
2019-01-29T12:13:58.186Z,99756.41
2019-01-29T12:16:29.754Z,99763.98
2019-01-29T12:19:01.307Z,99766.63
2019-01-29T12:21:32.876Z,99771.80
2019-01-29T12:24:04.513Z,99777.70
2019-01-29T12:26:36.079Z,99779.94
2019-01-29T12:29:07.630Z,99791.62
2019-01-29T12:31:40.163Z,99781.22
2019-01-29T12:34:11.773Z,99791.05
2019-01-29T12:36:43.378Z,99788.08
2019-01-29T12:39:14.937Z,99793.35
2019-01-29T12:41:46.496Z,99793.03
2019-01-29T12:44:18.070Z,99798.69
2019-01-29T12:46:49.633Z,99797.94
2019-01-29T12:49:21.227Z,99808.77
2019-01-29T12:51:54.439Z,99811.28
2019-01-29T12:54:26.063Z,99816.94
2019-01-29T12:56:57.627Z,99811.41
2019-01-29T12:59:29.194Z,99807.73
2019-01-29T13:02:00.757Z,99815.78
2019-01-29T13:04:32.355Z,99818.58
2019-01-29T13:07:04.055Z,99811.91
2019-01-29T13:09:35.814Z,99814.21
2019-01-29T13:12:07.390Z,99806.62
2019-01-29T13:14:38.980Z,99805.29
2019-01-29T13:17:10.536Z,99809.83
2019-01-29T13:19:42.123Z,99809.66
2019-01-29T13:22:13.716Z,99809.98
2019-01-29T13:24:45.284Z,99810.45
2019-01-29T13:27:16.819Z,99810.29
2019-01-29T13:29:48.491Z,99807.32
2019-01-29T13:32:20.118Z,99813.43
2019-01-29T13:34:51.940Z,99817.00
2019-01-29T13:37:23.472Z,99818.14
2019-01-29T13:39:55.015Z,99820.78
2019-01-29T13:42:27.610Z,99825.19
2019-01-29T13:44:59.179Z,99825.54
2019-01-29T13:47:30.776Z,99832.83
2019-01-29T13:50:02.333Z,99833.77
2019-01-29T13:52:33.919Z,99835.23
2019-01-29T13:55:10.093Z,99838.59
2019-01-29T13:57:41.651Z,99847.53
2019-01-29T14:00:24.282Z,99847.67
2019-01-29T14:02:55.842Z,99856.23
2019-01-29T14:05:27.415Z,99852.30
2019-01-29T14:07:58.977Z,99858.73
2019-01-29T14:10:30.573Z,99857.08
2019-01-29T14:13:02.262Z,99864.20
2019-01-29T14:15:41.411Z,99873.61
2019-01-29T14:18:13.373Z,99869.30
2019-01-29T14:20:44.932Z,99876.35
2019-01-29T14:23:16.489Z,99878.59
2019-01-29T14:25:48.540Z,99881.17
2019-01-29T14:28:20.105Z,99883.00
2019-01-29T14:30:51.705Z,99886.05
2019-01-29T14:33:23.218Z,99888.98
2019-01-29T14:35:54.778Z,99895.14
2019-01-29T14:38:43.782Z,99897.37
2019-01-29T14:41:15.322Z,99900.93
2019-01-29T14:43:46.912Z,99901.41
2019-01-29T14:46:19.537Z,99902.77
2019-01-29T14:48:52.209Z,99895.41
2019-01-29T14:51:23.863Z,99901.58
2019-01-29T14:53:55.405Z,99907.84
2019-01-29T14:56:27.730Z,99902.75
2019-01-29T14:58:59.355Z,99912.17
2019-01-29T15:01:30.910Z,99911.91
2019-01-29T15:04:02.473Z,99911.30
2019-01-29T15:06:35.760Z,99912.55
2019-01-29T15:09:09.231Z,99916.81
2019-01-29T15:11:40.984Z,99926.22
2019-01-29T15:14:13.629Z,99925.77
2019-01-29T15:16:46.914Z,99923.72
2019-01-29T15:19:18.469Z,99930.99
2019-01-29T15:21:50.253Z,99933.81
2019-01-29T15:24:21.869Z,99930.36
2019-01-29T15:26:53.544Z,99929.36
2019-01-29T15:29:25.080Z,99926.16
2019-01-29T15:31:56.716Z,99929.09
2019-01-29T15:34:28.279Z,99929.75
2019-01-29T15:36:59.846Z,99928.74
2019-01-29T15:39:31.414Z,99934.73
2019-01-29T15:42:03.022Z,99937.16
2019-01-29T15:44:34.828Z,99943.80
2019-01-29T15:47:06.401Z,99943.10
2019-01-29T15:49:38.018Z,99948.73
2019-01-29T15:52:09.634Z,99945.11
2019-01-29T15:54:41.198Z,99942.81
2019-01-29T15:57:14.341Z,99947.11
2019-01-29T15:59:46.211Z,99948.02
2019-01-29T16:02:17.765Z,99950.02
2019-01-29T16:04:49.547Z,99957.86
2019-01-29T16:07:21.218Z,99961.25
2019-01-29T16:09:53.022Z,99967.17
2019-01-29T16:12:24.745Z,99971.49
2019-01-29T16:14:56.373Z,99974.15
2019-01-29T16:17:27.987Z,99976.63
2019-01-29T16:19:59.606Z,99971.41
2019-01-29T16:22:31.148Z,99979.55
2019-01-29T16:25:02.729Z,99981.66
2019-01-29T16:27:34.276Z,99984.31
2019-01-29T16:32:59.988Z,99981.20
2019-01-29T16:35:36.055Z,99984.62
2019-01-29T16:38:09.044Z,99981.19
2019-01-29T16:40:46.223Z,99982.38
2019-01-29T16:43:17.976Z,99985.09
2019-01-29T16:45:49.700Z,99995.42
2019-01-29T16:52:00.561Z,99991.27
2019-01-29T16:54:32.183Z,99982.01
2019-01-29T16:57:03.833Z,99978.55
2019-01-29T16:59:35.417Z,99979.59
2019-01-29T17:02:07.141Z,99980.03
2019-01-29T17:04:38.722Z,99981.36
2019-01-29T17:07:10.357Z,99978.33
2019-01-29T17:09:42.088Z,99979.17
2019-01-29T17:12:13.752Z,99988.12
2019-01-29T17:14:45.518Z,99985.69
2019-01-29T17:17:17.167Z,99986.44
2019-01-29T17:19:48.752Z,99985.34
2019-01-29T17:22:20.420Z,99978.04
2019-01-29T17:24:52.143Z,99986.23
2019-01-29T17:27:23.819Z,99986.98
2019-01-29T17:29:55.616Z,99977.20
2019-01-29T17:32:30.386Z,99984.59
2019-01-29T17:35:00.644Z,99987.92
2019-01-29T17:37:32.314Z,99993.83
2019-01-29T17:40:05.595Z,99989.39
2019-01-29T17:42:37.429Z,99989.97
2019-01-29T17:45:13.928Z,99977.00
2019-01-29T17:47:46.035Z,99976.94
2019-01-29T17:50:33.689Z,99977.72
2019-01-29T17:53:06.402Z,99984.55
2019-01-29T17:55:40.157Z,99981.29
2019-01-29T17:58:13.269Z,99994.92
2019-01-29T18:00:46.693Z,99994.78
2019-01-29T18:03:18.254Z,99994.41
2019-01-29T18:05:49.857Z,99999.20
2019-01-29T18:08:21.581Z,99991.65
2019-01-29T18:10:53.241Z,99991.30
2019-01-29T18:13:24.882Z,99994.65
2019-01-29T18:15:56.464Z,99995.42
2019-01-29T18:18:28.047Z,99992.75
2019-01-29T18:20:59.903Z,99999.75
2019-01-29T18:23:31.538Z,99992.53
2019-01-29T18:26:03.284Z,100000.37
2019-01-29T18:28:35.028Z,99999.94
2019-01-29T18:31:06.801Z,100002.13
2019-01-29T18:33:38.584Z,100002.09
2019-01-29T18:36:10.175Z,100007.28
2019-01-29T18:38:42.156Z,100006.86
2019-01-29T18:41:13.834Z,99997.66
2019-01-29T18:43:45.402Z,100010.91
2019-01-29T18:46:18.602Z,100008.69
2019-01-29T18:48:50.336Z,100009.16
2019-01-29T18:51:21.943Z,100014.05
2019-01-29T18:53:53.621Z,100015.73
2019-01-29T18:56:25.363Z,100008.19
2019-01-29T18:58:57.048Z,100015.09
2019-01-29T19:01:28.772Z,100009.19
2019-01-29T19:04:00.356Z,100012.64
2019-01-29T19:06:31.997Z,100011.30
2019-01-29T19:09:04.654Z,100015.42
2019-01-29T19:11:37.502Z,100013.95
2019-01-29T19:14:09.153Z,100020.60
2019-01-29T19:16:40.736Z,100029.09
2019-01-29T19:19:14.682Z,100024.89
2019-01-29T19:21:45.923Z,100018.44
2019-01-29T19:24:18.083Z,100021.43
2019-01-29T19:26:49.872Z,100026.34
2019-01-29T19:29:21.614Z,100024.11
2019-01-29T19:31:53.330Z,100022.91
2019-01-29T19:34:24.999Z,100029.05
2019-01-29T19:36:56.604Z,100021.09
2019-01-29T19:39:28.339Z,100027.80
2019-01-29T19:41:59.946Z,100029.14
2019-01-29T19:44:31.565Z,100024.81
2019-01-29T19:47:03.243Z,100028.70
2019-01-29T19:49:34.872Z,100032.88
2019-01-29T19:52:06.592Z,100030.64
2019-01-29T19:54:38.367Z,100031.84
2019-01-29T19:57:09.947Z,100032.97
2019-01-29T19:59:41.723Z,100034.50
2019-01-29T20:02:13.303Z,100038.48
2019-01-29T20:04:45.119Z,100038.06
2019-01-29T20:07:16.795Z,100037.41
2019-01-29T20:09:48.392Z,100040.80
2019-01-29T20:12:20.131Z,100034.66
2019-01-29T20:14:51.953Z,100032.94
2019-01-29T20:17:23.721Z,100040.86
2019-01-29T20:19:55.368Z,100037.84
2019-01-29T20:22:27.273Z,100037.66
2019-01-29T20:24:58.983Z,100033.56
2019-01-29T20:27:30.707Z,100036.11
2019-01-29T20:30:02.588Z,100034.72
2019-01-29T20:32:34.523Z,100035.56
2019-01-29T20:35:06.589Z,100035.27
2019-01-29T20:37:38.282Z,100039.84
2019-01-29T20:40:15.051Z,100033.39
2019-01-29T20:42:46.782Z,100025.89
2019-01-29T20:45:18.400Z,100031.02
2019-01-29T20:47:52.480Z,100028.98
2019-01-29T20:50:36.225Z,100022.61
2019-01-29T20:53:07.962Z,100021.61
2019-01-29T20:55:39.830Z,100025.38
2019-01-29T20:58:11.649Z,100021.33
2019-01-29T21:00:43.688Z,100025.24
2019-01-29T21:03:15.295Z,100023.30
2019-01-29T21:05:46.950Z,100019.05
2019-01-29T21:08:18.618Z,100015.80
2019-01-29T21:10:50.362Z,100021.90
2019-01-29T21:13:22.225Z,100018.97
2019-01-29T21:15:54.222Z,100009.09
2019-01-29T21:18:25.945Z,100010.13
2019-01-29T21:20:59.496Z,100010.86
2019-01-29T21:23:33.929Z,100018.64
2019-01-29T21:26:07.154Z,100010.94
2019-01-29T21:28:38.938Z,100006.63
2019-01-29T21:31:12.989Z,100005.98
2019-01-29T21:33:44.554Z,100006.14
2019-01-29T21:36:16.368Z,100001.88
2019-01-29T21:38:48.024Z,100005.77
2019-01-29T21:41:19.702Z,100014.16
2019-01-29T21:43:51.423Z,100014.75
2019-01-29T21:46:23.200Z,100014.03
2019-01-29T21:48:54.885Z,100015.84
2019-01-29T21:51:27.300Z,100017.16
2019-01-29T21:54:00.513Z,100010.44
2019-01-29T21:56:33.397Z,100015.13
2019-01-29T21:59:13.417Z,100008.09
2019-01-29T22:01:41.279Z,100005.46
2019-01-29T22:04:12.982Z,100009.48
2019-01-29T22:06:44.701Z,100005.97
2019-01-29T22:09:19.601Z,100005.63
2019-01-29T22:11:51.389Z,100016.42
2019-01-29T22:14:23.180Z,100011.64
2019-01-29T22:16:55.006Z,100007.38
2019-01-29T22:19:26.806Z,100006.34
2019-01-29T22:21:58.396Z,100010.28
2019-01-29T22:24:30.218Z,100007.50
2019-01-29T22:27:01.898Z,100004.92
2019-01-29T22:29:33.799Z,100008.22
2019-01-29T22:32:07.122Z,100009.68
2019-01-29T22:34:38.920Z,100002.67
2019-01-29T22:37:10.555Z,100000.70
2019-01-29T22:39:42.792Z,99997.12
2019-01-29T22:42:14.539Z,100001.77
2019-01-29T22:44:46.337Z,100001.20
2019-01-29T22:47:17.987Z,99999.20
2019-01-29T22:49:49.648Z,99998.27
2019-01-29T22:52:21.371Z,100002.27
2019-01-29T22:54:53.022Z,100003.73
2019-01-29T22:57:24.683Z,99998.70
2019-01-29T22:59:56.278Z,100002.28
2019-01-29T23:02:27.919Z,99998.70
2019-01-29T23:04:59.637Z,99997.84
2019-01-29T23:07:31.536Z,100000.47
2019-01-29T23:10:03.132Z,99997.09
2019-01-29T23:12:34.956Z,99997.81
2019-01-29T23:15:11.517Z,99992.76
2019-01-29T23:17:44.077Z,99998.64
2019-01-29T23:20:17.683Z,99992.20
2019-01-29T23:22:49.347Z,99993.53
2019-01-29T23:25:21.017Z,99992.40
2019-01-29T23:27:52.716Z,99994.15
2019-01-29T23:30:25.951Z,99991.29
2019-01-29T23:32:57.522Z,99991.58
2019-01-29T23:35:29.101Z,99996.48
2019-01-29T23:38:00.756Z,99993.65
2019-01-29T23:40:32.337Z,99989.92
2019-01-29T23:43:04.006Z,99992.41
2019-01-29T23:45:35.810Z,100000.47
2019-01-29T23:48:07.441Z,99998.22
2019-01-29T23:50:39.117Z,99995.83
2019-01-29T23:53:10.692Z,99995.14
2019-01-29T23:56:51.401Z,99992.16
